Terminal Aerodrome Forecast
Issued by NWS Wilmington, NC

Home | Current Version | Previous Version | Text Only | Print | Product List | Glossary On
Versions: 1 2 3 4 5 6 7 8 9 10 11 12 13 14 15 16 17 18 19
000
FTUS42 KILM 212300
TAFLBT
TAF
KLBT 212320Z 2200/2224 28004KT P6SM SKC
     FM220400 33010KT P6SM FEW060
     FM221400 35011G16KT P6SM SKC
     FM222200 33005KT P6SM SKC=

USA.gov is the U.S. government's official web portal to all federal, state and local government web resources and services.